Time;durP1;ratioP1;P1;durP2;ratioP2;P2;SDS_P1;SDS_P2;PMS_P1;PMS_P2;Temp;Humidity;BMP_temperature;BMP_pressure;BME280_temperature;BME280_humidity;BME280_pressure;Samples;Min_cycle;Max_cycle;Signal;HPM_P1;HPM_P2
2022/08/28 00:02:24;;;;;;;8.07;5.57;;;20.30;99.90;;;;;;5077145;28;20049;-86
2022/08/28 00:04:50;;;;;;;9.45;5.55;;;20.20;99.90;;;;;;5076545;28;20477;-84
2022/08/28 00:07:16;;;;;;;8.07;5.00;;;20.30;99.90;;;;;;5077281;28;20466;-84
2022/08/28 00:09:41;;;;;;;8.18;5.43;;;20.30;99.90;;;;;;5075926;28;20025;-84
2022/08/28 00:12:07;;;;;;;10.48;5.40;;;20.40;99.90;;;;;;5088077;28;20024;-83
2022/08/28 00:14:33;;;;;;;9.73;5.15;;;20.30;99.90;;;;;;5096411;28;20380;-86
2022/08/28 00:16:59;;;;;;;9.52;5.50;;;20.40;99.90;;;;;;5096655;28;20142;-83
2022/08/28 00:19:24;;;;;;;10.48;5.35;;;20.40;99.90;;;;;;5087222;28;20035;-83
2022/08/28 00:21:50;;;;;;;11.25;6.22;;;20.40;99.90;;;;;;5075724;28;20103;-84
2022/08/28 00:24:17;;;;;;;10.05;5.18;;;20.40;99.90;;;;;;5092964;28;20514;-84
2022/08/28 00:29:28;;;;;;;8.20;5.32;;;20.40;99.90;;;;;;5076875;28;20035;-85
2022/08/28 00:31:55;;;;;;;7.40;5.47;;;20.40;99.90;;;;;;5075500;28;20032;-84
2022/08/28 00:34:21;;;;;;;7.97;5.07;;;20.40;99.90;;;;;;5076038;28;20056;-88
2022/08/28 00:36:47;;;;;;;14.02;5.50;;;20.40;99.90;;;;;;5080614;28;20052;-87
2022/08/28 00:39:13;;;;;;;10.60;5.68;;;20.30;99.90;;;;;;5096115;28;20036;-86
2022/08/28 00:41:39;;;;;;;8.43;5.70;;;20.30;99.90;;;;;;5095734;28;20020;-86
2022/08/28 00:44:16;;;;;;;8.32;5.72;;;20.30;99.90;;;;;;5113577;28;20028;-85
2022/08/28 00:46:44;;;;;;;7.45;5.60;;;20.30;99.90;;;;;;5113772;28;20028;-85
2022/08/28 00:49:11;;;;;;;11.70;5.97;;;20.20;99.90;;;;;;5097390;28;20056;-85
2022/08/28 00:54:23;;;;;;;9.63;5.70;;;20.20;99.90;;;;;;5080309;28;20090;-87
2022/08/28 00:56:49;;;;;;;7.30;5.60;;;20.20;99.90;;;;;;5081108;28;20020;-84
2022/08/28 00:59:17;;;;;;;10.63;5.95;;;20.20;99.90;;;;;;5087521;28;20036;-84
2022/08/28 01:01:45;;;;;;;8.93;5.68;;;20.30;99.90;;;;;;5085673;28;20024;-80
2022/08/28 01:04:17;;;;;;;8.13;5.75;;;20.30;99.90;;;;;;5094690;28;20053;-79
2022/08/28 01:06:48;;;;;;;7.53;5.43;;;20.30;99.90;;;;;;5094595;28;20058;-79
2022/08/28 01:09:14;;;;;;;7.95;5.45;;;20.40;99.90;;;;;;5094873;28;20024;-79
2022/08/28 01:11:43;;;;;;;8.00;6.05;;;20.30;99.90;;;;;;5095744;28;20081;-80
2022/08/28 01:14:12;;;;;;;9.13;5.45;;;20.30;99.90;;;;;;5095118;28;20036;-80
2022/08/28 01:16:38;;;;;;;8.20;5.55;;;20.40;99.90;;;;;;5094328;28;20486;-79
2022/08/28 01:19:07;;;;;;;10.13;5.47;;;20.40;99.90;;;;;;5095168;28;20562;-79
2022/08/28 01:22:03;;;;;;;8.70;4.95;;;20.40;99.90;;;;;;5095135;28;20119;-85
2022/08/28 01:24:30;;;;;;;8.48;5.45;;;20.40;99.90;;;;;;5094415;28;20085;-80
2022/08/28 01:26:56;;;;;;;6.63;5.07;;;20.30;99.90;;;;;;5095509;28;20039;-80
2022/08/28 01:29:22;;;;;;;10.82;5.50;;;20.30;99.90;;;;;;5094657;28;20028;-78
2022/08/28 01:31:47;;;;;;;9.73;6.32;;;20.30;99.90;;;;;;5094513;28;20035;-80
2022/08/28 01:34:13;;;;;;;8.60;5.40;;;20.30;99.90;;;;;;5096020;28;20058;-80
2022/08/28 01:36:41;;;;;;;9.38;5.70;;;20.20;99.90;;;;;;5094124;28;20533;-79
2022/08/28 01:39:11;;;;;;;7.85;4.85;;;20.20;99.90;;;;;;5094359;28;20066;-78
2022/08/28 01:41:42;;;;;;;7.30;4.93;;;20.20;99.90;;;;;;5093900;28;20024;-83
2022/08/28 01:44:08;;;;;;;7.97;5.75;;;20.20;99.90;;;;;;5095569;28;20107;-79
2022/08/28 01:46:33;;;;;;;11.63;5.50;;;20.30;99.90;;;;;;5094173;28;20035;-83
2022/08/28 01:48:59;;;;;;;10.05;5.63;;;20.20;99.90;;;;;;5093991;28;20380;-79
2022/08/28 01:51:25;;;;;;;7.07;5.35;;;20.20;99.90;;;;;;5094628;28;20024;-80
2022/08/28 01:53:51;;;;;;;7.50;5.78;;;20.20;99.90;;;;;;5093603;28;20048;-79
2022/08/28 01:56:17;;;;;;;10.20;5.50;;;20.20;99.90;;;;;;5094812;28;20065;-80
2022/08/28 01:58:44;;;;;;;8.60;5.60;;;20.10;99.90;;;;;;5093142;28;20064;-80
2022/08/28 02:01:11;;;;;;;9.65;5.57;;;20.10;99.90;;;;;;5094243;28;20513;-79
2022/08/28 02:03:37;;;;;;;7.50;4.70;;;20.10;99.90;;;;;;5093958;28;20028;-83
2022/08/28 02:06:03;;;;;;;9.63;5.32;;;20.00;99.90;;;;;;5094593;28;20039;-78
2022/08/28 02:08:29;;;;;;;8.68;5.35;;;20.10;99.90;;;;;;5093888;28;20358;-78
2022/08/28 02:10:55;;;;;;;7.07;4.65;;;20.00;99.90;;;;;;5093670;28;20012;-79
2022/08/28 02:13:21;;;;;;;6.50;4.63;;;20.00;99.90;;;;;;5094856;28;20025;-79
2022/08/28 02:15:47;;;;;;;10.50;5.53;;;20.00;99.90;;;;;;5092984;28;20071;-79
2022/08/28 02:18:13;;;;;;;7.25;5.40;;;20.00;99.90;;;;;;5093390;28;20036;-79
2022/08/28 02:20:41;;;;;;;7.35;4.80;;;20.00;99.90;;;;;;5093011;28;20111;-79
2022/08/28 02:23:08;;;;;;;10.45;5.22;;;20.00;99.90;;;;;;5093260;28;20508;-78
2022/08/28 02:25:34;;;;;;;10.20;5.25;;;20.00;99.90;;;;;;5093125;28;20064;-78
2022/08/28 02:27:59;;;;;;;6.82;5.22;;;20.00;99.90;;;;;;5093207;28;20031;-79
2022/08/28 02:30:26;;;;;;;10.48;5.38;;;20.00;99.90;;;;;;5094794;28;20074;-78
2022/08/28 02:32:52;;;;;;;8.18;4.82;;;20.00;99.90;;;;;;5092673;28;20119;-79
2022/08/28 02:35:20;;;;;;;9.02;5.30;;;20.00;99.90;;;;;;5093165;28;20069;-79
2022/08/28 02:37:46;;;;;;;8.75;5.38;;;20.00;99.90;;;;;;5092724;28;20054;-79
2022/08/28 02:40:14;;;;;;;9.48;5.22;;;20.10;99.90;;;;;;5093205;28;20024;-79
2022/08/28 02:42:41;;;;;;;6.97;4.88;;;20.10;99.90;;;;;;5092984;28;20032;-82
2022/08/28 02:45:09;;;;;;;8.13;4.97;;;20.00;99.90;;;;;;5093750;28;20024;-78
2022/08/28 02:47:35;;;;;;;7.68;5.05;;;20.00;99.90;;;;;;5093112;28;20466;-78
2022/08/28 02:50:00;;;;;;;9.40;4.93;;;20.10;99.90;;;;;;5093082;28;20027;-79
2022/08/28 02:52:26;;;;;;;7.13;4.95;;;20.00;99.90;;;;;;5093004;28;20058;-79
2022/08/28 02:54:52;;;;;;;7.70;5.25;;;20.00;99.90;;;;;;5092924;28;20461;-79
2022/08/28 02:57:17;;;;;;;8.63;5.28;;;20.00;99.90;;;;;;5093286;28;20085;-79
2022/08/28 02:59:43;;;;;;;9.95;5.43;;;20.00;99.90;;;;;;5092494;28;20083;-80
2022/08/28 03:02:09;;;;;;;8.68;5.40;;;20.10;99.90;;;;;;5092835;28;20078;-79
2022/08/28 03:04:35;;;;;;;7.55;5.00;;;20.10;99.90;;;;;;5093211;28;20461;-79
2022/08/28 03:07:02;;;;;;;9.77;4.90;;;20.00;99.90;;;;;;5092116;28;20139;-78
2022/08/28 03:09:28;;;;;;;8.38;4.97;;;20.00;99.90;;;;;;5092388;28;20028;-79
2022/08/28 03:11:53;;;;;;;8.20;4.93;;;20.10;99.90;;;;;;5093386;28;20561;-79
2022/08/28 03:14:22;;;;;;;8.98;4.90;;;20.10;99.90;;;;;;5093366;28;20020;-79
2022/08/28 03:16:48;;;;;;;8.05;5.13;;;20.10;99.90;;;;;;5092526;28;20024;-79
2022/08/28 03:19:15;;;;;;;8.98;5.68;;;20.10;99.90;;;;;;5093012;28;20032;-79
2022/08/28 03:21:40;;;;;;;9.77;5.60;;;20.10;99.90;;;;;;5092789;28;20027;-83
2022/08/28 03:24:06;;;;;;;9.05;4.75;;;20.00;99.90;;;;;;5092714;28;20028;-78
2022/08/28 03:26:32;;;;;;;6.55;4.78;;;20.10;99.90;;;;;;5093999;28;20041;-78
2022/08/28 03:28:58;;;;;;;10.02;5.07;;;20.10;99.90;;;;;;5093968;28;20774;-79
2022/08/28 03:31:26;;;;;;;11.18;5.13;;;20.00;99.90;;;;;;5092738;28;20077;-78
2022/08/28 03:33:53;;;;;;;8.07;4.75;;;20.00;99.90;;;;;;5092461;28;20404;-78
2022/08/28 03:36:22;;;;;;;6.68;4.35;;;20.10;99.90;;;;;;5092804;28;20038;-78
2022/08/28 03:38:50;;;;;;;7.30;4.38;;;20.10;99.90;;;;;;5092097;28;20055;-79
2022/08/28 03:41:18;;;;;;;7.78;4.55;;;20.10;99.90;;;;;;5093112;28;20519;-78
2022/08/28 03:43:45;;;;;;;7.03;4.25;;;20.10;99.90;;;;;;5092145;28;20136;-79
2022/08/28 03:46:20;;;;;;;6.13;4.35;;;20.00;99.90;;;;;;5093698;28;20137;-79
2022/08/28 03:48:46;;;;;;;8.60;4.35;;;20.00;99.90;;;;;;5092492;28;20032;-80
2022/08/28 03:51:17;;;;;;;6.10;4.60;;;20.10;99.90;;;;;;5093870;28;20107;-79
2022/08/28 03:53:43;;;;;;;6.82;4.30;;;20.00;99.90;;;;;;5093489;28;20477;-83
2022/08/28 03:56:11;;;;;;;7.00;4.10;;;20.10;99.90;;;;;;5092393;28;20058;-79
2022/08/28 03:58:38;;;;;;;5.20;4.22;;;20.10;99.90;;;;;;5092761;28;20080;-78
2022/08/28 04:01:04;;;;;;;8.88;4.00;;;20.10;99.90;;;;;;5092975;28;20826;-79
2022/08/28 04:03:29;;;;;;;5.60;3.95;;;20.10;99.90;;;;;;5093010;28;20020;-79
2022/08/28 04:05:55;;;;;;;7.38;3.78;;;20.10;99.90;;;;;;5091725;28;20035;-79
2022/08/28 04:08:21;;;;;;;6.05;3.55;;;20.10;99.90;;;;;;5093565;28;20020;-80
2022/08/28 04:10:48;;;;;;;5.68;3.88;;;20.10;99.90;;;;;;5091624;28;20032;-81
2022/08/28 04:13:16;;;;;;;6.85;4.32;;;20.20;99.90;;;;;;5093541;28;20127;-80
2022/08/28 04:15:42;;;;;;;6.30;3.90;;;20.10;99.90;;;;;;5092020;28;20035;-85
2022/08/28 04:18:08;;;;;;;5.75;3.88;;;20.10;99.90;;;;;;5091734;28;20032;-80
2022/08/28 04:20:34;;;;;;;6.97;4.18;;;20.10;99.90;;;;;;5092213;28;20028;-80
2022/08/28 04:23:02;;;;;;;6.07;4.07;;;20.10;99.90;;;;;;5095579;28;20119;-80
2022/08/28 04:25:28;;;;;;;8.60;3.85;;;20.10;99.90;;;;;;5096393;28;20028;-80
2022/08/28 04:27:54;;;;;;;6.63;3.80;;;20.10;99.90;;;;;;5095959;28;20020;-80
2022/08/28 04:30:20;;;;;;;6.18;4.00;;;20.10;99.90;;;;;;5097229;28;20107;-80
2022/08/28 04:32:45;;;;;;;7.68;4.20;;;20.10;99.90;;;;;;5096558;28;20027;-84
2022/08/28 04:35:12;;;;;;;6.55;3.72;;;20.10;99.90;;;;;;5095378;28;20062;-80
2022/08/28 04:37:39;;;;;;;7.68;3.97;;;20.10;99.90;;;;;;5097196;28;20028;-79
2022/08/28 04:40:08;;;;;;;7.13;4.00;;;20.10;99.90;;;;;;5095675;28;20240;-81
2022/08/28 04:42:34;;;;;;;8.60;4.05;;;20.00;99.90;;;;;;5097167;28;20026;-80
2022/08/28 04:45:00;;;;;;;7.85;3.85;;;20.10;99.90;;;;;;5095499;28;20107;-80
2022/08/28 04:47:26;;;;;;;6.25;3.83;;;20.10;99.90;;;;;;5096373;28;20077;-80
2022/08/28 04:49:53;;;;;;;4.60;3.85;;;20.00;99.90;;;;;;5095434;28;20023;-80
2022/08/28 04:52:19;;;;;;;7.20;3.83;;;20.10;99.90;;;;;;5095695;28;20024;-80
2022/08/28 04:54:45;;;;;;;6.28;3.83;;;20.10;99.90;;;;;;5095714;28;20027;-83
2022/08/28 04:57:10;;;;;;;12.60;4.18;;;20.10;99.90;;;;;;5095282;28;20384;-79
2022/08/28 04:59:36;;;;;;;8.13;4.07;;;20.10;99.90;;;;;;5096037;28;20239;-80
2022/08/28 05:02:02;;;;;;;6.75;3.80;;;20.10;99.90;;;;;;5094508;28;20453;-79
2022/08/28 05:04:28;;;;;;;9.43;4.35;;;20.10;99.90;;;;;;5095138;28;20073;-79
2022/08/28 05:06:53;;;;;;;5.60;3.90;;;20.10;99.90;;;;;;5095849;28;20115;-79
2022/08/28 05:09:19;;;;;;;4.95;3.45;;;20.10;99.90;;;;;;5095758;28;20549;-78
2022/08/28 05:11:47;;;;;;;5.80;3.55;;;20.10;99.90;;;;;;5095357;28;20035;-81
2022/08/28 05:14:13;;;;;;;4.88;3.42;;;20.10;99.90;;;;;;5095013;28;20037;-78
2022/08/28 05:16:48;;;;;;;5.43;3.65;;;20.10;99.90;;;;;;5095233;28;20028;-80
2022/08/28 05:19:16;;;;;;;5.97;4.05;;;20.10;99.90;;;;;;5095255;28;20082;-80
2022/08/28 05:21:42;;;;;;;10.48;6.20;;;20.10;99.90;;;;;;5095137;28;20024;-79
2022/08/28 05:24:09;;;;;;;7.40;4.47;;;20.10;99.90;;;;;;5095919;28;20024;-78
2022/08/28 05:26:36;;;;;;;6.32;3.78;;;20.10;99.90;;;;;;5094844;28;20028;-79
2022/08/28 05:29:03;;;;;;;7.60;3.78;;;20.20;99.90;;;;;;5095880;28;20024;-79
2022/08/28 05:31:30;;;;;;;6.70;3.63;;;20.20;99.90;;;;;;5095118;28;20024;-79
2022/08/28 05:33:57;;;;;;;5.97;3.35;;;20.20;99.90;;;;;;5094954;28;20035;-79
2022/08/28 05:36:24;;;;;;;8.32;3.33;;;20.20;99.90;;;;;;5094995;28;20028;-79
2022/08/28 05:38:53;;;;;;;3.65;3.03;;;20.10;99.90;;;;;;5094479;28;20488;-84
2022/08/28 05:41:24;;;;;;;5.53;3.65;;;20.20;99.90;;;;;;5095878;28;20456;-79
2022/08/28 05:43:51;;;;;;;5.57;3.70;;;20.20;99.90;;;;;;5094641;28;20024;-84
2022/08/28 05:46:17;;;;;;;4.75;3.78;;;20.20;99.90;;;;;;5094564;28;20035;-79
2022/08/28 05:48:44;;;;;;;8.15;3.55;;;20.20;99.90;;;;;;5095868;28;20028;-79
2022/08/28 05:51:16;;;;;;;5.10;3.40;;;20.20;99.90;;;;;;5093486;28;20020;-79
2022/08/28 05:53:43;;;;;;;6.30;3.67;;;20.30;99.90;;;;;;5094226;28;20489;-79
2022/08/28 05:56:14;;;;;;;4.80;3.13;;;20.30;99.90;;;;;;5095133;28;20027;-79
2022/08/28 05:58:40;;;;;;;5.10;3.20;;;20.30;99.90;;;;;;5095865;28;20024;-79
2022/08/28 06:01:14;;;;;;;3.80;2.80;;;20.30;99.90;;;;;;5093933;28;20024;-79
2022/08/28 06:03:41;;;;;;;6.65;3.08;;;20.30;99.90;;;;;;5095987;28;20024;-79
2022/08/28 06:06:08;;;;;;;8.85;3.13;;;20.30;99.90;;;;;;5094755;28;20081;-79
2022/08/28 06:08:35;;;;;;;5.72;3.25;;;20.30;99.90;;;;;;5094226;28;20100;-78
2022/08/28 06:11:01;;;;;;;5.93;2.88;;;20.30;99.90;;;;;;5094586;28;20020;-79
2022/08/28 06:13:28;;;;;;;4.95;3.35;;;20.40;99.90;;;;;;5094731;28;20119;-80
2022/08/28 06:15:55;;;;;;;4.68;3.20;;;20.40;99.90;;;;;;5093667;28;20126;-80
2022/08/28 06:18:21;;;;;;;9.02;3.00;;;20.40;99.90;;;;;;5093640;28;20116;-80
2022/08/28 06:20:47;;;;;;;5.35;3.10;;;20.50;99.90;;;;;;5094721;28;20020;-79
2022/08/28 06:23:15;;;;;;;6.70;3.05;;;20.40;99.90;;;;;;5093530;28;20396;-80
2022/08/28 06:25:47;;;;;;;4.03;2.70;;;20.50;99.90;;;;;;5093735;28;20034;-80
2022/08/28 06:28:15;;;;;;;4.35;3.22;;;20.40;99.90;;;;;;5094069;28;20077;-80
2022/08/28 06:30:44;;;;;;;7.07;3.03;;;20.50;99.90;;;;;;5093309;28;20031;-80
2022/08/28 06:33:12;;;;;;;8.13;2.95;;;20.40;99.90;;;;;;5094340;28;20100;-80
2022/08/28 06:35:47;;;;;;;4.15;2.60;;;20.50;99.90;;;;;;5093644;28;20032;-80
2022/08/28 06:38:14;;;;;;;6.63;2.92;;;20.50;99.90;;;;;;5093192;28;20043;-81
2022/08/28 06:40:45;;;;;;;5.07;2.85;;;20.50;99.90;;;;;;5093632;28;20046;-80
2022/08/28 06:43:12;;;;;;;4.30;2.50;;;20.40;99.90;;;;;;5093490;28;20415;-80
2022/08/28 06:45:43;;;;;;;7.43;2.83;;;20.50;99.90;;;;;;5093736;28;20032;-79
2022/08/28 06:48:10;;;;;;;4.75;3.03;;;20.50;99.90;;;;;;5093561;28;20024;-79
2022/08/28 06:50:41;;;;;;;5.30;3.13;;;20.40;99.90;;;;;;5093329;28;20123;-79
2022/08/28 06:53:09;;;;;;;4.60;3.20;;;20.40;99.90;;;;;;5092871;28;20052;-80
2022/08/28 06:55:35;;;;;;;5.00;3.13;;;20.40;99.90;;;;;;5094359;28;20285;-80
2022/08/28 06:58:01;;;;;;;5.07;2.97;;;20.40;99.90;;;;;;5092919;28;20032;-81
2022/08/28 07:00:27;;;;;;;7.22;3.50;;;20.40;99.90;;;;;;5093512;28;20025;-80
2022/08/28 07:02:53;;;;;;;4.85;2.90;;;20.40;99.90;;;;;;5093358;28;20087;-83
2022/08/28 07:05:18;;;;;;;3.30;2.80;;;20.40;99.90;;;;;;5093020;28;20031;-79
2022/08/28 07:07:44;;;;;;;6.70;3.22;;;20.40;99.90;;;;;;5093692;28;20020;-80
2022/08/28 07:10:09;;;;;;;4.97;2.67;;;20.40;99.90;;;;;;5092965;28;20023;-78
2022/08/28 07:12:35;;;;;;;4.75;3.28;;;20.40;99.90;;;;;;5093529;28;20488;-80
2022/08/28 07:15:03;;;;;;;4.63;2.90;;;20.40;99.90;;;;;;5092806;28;20155;-80
2022/08/28 07:17:29;;;;;;;6.82;3.10;;;20.40;99.90;;;;;;5092649;28;20032;-79
2022/08/28 07:19:55;;;;;;;6.85;3.40;;;20.40;99.90;;;;;;5092872;28;20105;-83
2022/08/28 07:22:21;;;;;;;6.57;3.10;;;20.40;99.90;;;;;;5093213;28;20473;-79
2022/08/28 07:24:47;;;;;;;3.28;2.70;;;20.50;99.90;;;;;;5094191;28;20031;-79
2022/08/28 07:27:13;;;;;;;3.97;3.30;;;20.50;99.90;;;;;;5092732;28;20409;-79
2022/08/28 07:29:39;;;;;;;7.70;3.40;;;20.60;99.90;;;;;;5094227;28;20469;-79
2022/08/28 07:32:05;;;;;;;6.38;3.38;;;20.60;99.90;;;;;;5093918;28;20027;-79
2022/08/28 07:34:31;;;;;;;6.53;3.47;;;20.70;99.90;;;;;;5092854;28;20034;-79
2022/08/28 07:37:02;;;;;;;6.65;3.20;;;20.70;99.90;;;;;;5093654;28;20473;-82
2022/08/28 07:39:28;;;;;;;5.32;2.90;;;20.70;99.90;;;;;;5094119;28;20024;-79
2022/08/28 07:41:54;;;;;;;4.60;3.20;;;20.70;99.90;;;;;;5092549;28;20488;-82
2022/08/28 07:47:05;;;;;;;5.63;3.42;;;20.70;99.90;;;;;;5093706;28;20071;-79
2022/08/28 07:49:32;;;;;;;4.25;2.95;;;20.70;99.90;;;;;;5093927;28;20089;-79
2022/08/28 07:51:58;;;;;;;4.38;2.85;;;20.70;99.90;;;;;;5092282;28;20032;-84
2022/08/28 07:54:24;;;;;;;4.50;3.10;;;20.70;99.90;;;;;;5093123;28;20420;-78
2022/08/28 07:56:50;;;;;;;6.53;3.67;;;20.70;99.90;;;;;;5094887;28;20034;-78
2022/08/28 07:59:16;;;;;;;8.43;3.20;;;20.70;99.90;;;;;;5097172;28;20020;-79
2022/08/28 08:01:45;;;;;;;4.70;3.05;;;20.80;99.90;;;;;;5097740;28;20024;-79
2022/08/28 08:04:12;;;;;;;4.63;3.17;;;20.80;99.90;;;;;;5096009;28;20123;-80
2022/08/28 08:06:39;;;;;;;7.13;3.20;;;20.80;99.90;;;;;;5097652;28;20103;-80
2022/08/28 08:09:09;;;;;;;5.82;3.30;;;20.80;99.90;;;;;;5095731;28;20031;-80
2022/08/28 08:11:35;;;;;;;3.97;3.10;;;20.90;99.90;;;;;;5097361;28;20021;-80
2022/08/28 08:14:04;;;;;;;9.20;3.30;;;21.00;99.90;;;;;;5096172;28;20069;-81
2022/08/28 08:16:33;;;;;;;7.07;3.47;;;21.10;99.90;;;;;;5096721;28;20032;-80
2022/08/28 08:18:59;;;;;;;5.68;3.72;;;21.10;99.90;;;;;;5095951;28;20428;-81
2022/08/28 08:21:26;;;;;;;7.38;3.78;;;21.20;99.90;;;;;;5096248;28;20024;-82
2022/08/28 08:23:52;;;;;;;5.80;3.33;;;21.30;99.90;;;;;;5097424;28;20028;-79
2022/08/28 08:26:20;;;;;;;5.60;3.45;;;21.40;99.90;;;;;;5095882;28;20028;-79
2022/08/28 08:28:46;;;;;;;3.50;3.20;;;21.50;99.90;;;;;;5096039;28;20024;-80
2022/08/28 08:31:15;;;;;;;5.18;3.40;;;21.70;99.90;;;;;;5097105;28;20031;-81
2022/08/28 08:33:43;;;;;;;6.28;3.45;;;21.80;99.90;;;;;;5095918;28;20089;-81
2022/08/28 08:36:10;;;;;;;6.20;3.45;;;21.80;99.90;;;;;;5096835;28;20477;-82
2022/08/28 08:38:37;;;;;;;8.48;3.40;;;21.80;99.90;;;;;;5097167;28;20060;-81
2022/08/28 08:41:21;;;;;;;4.03;3.10;;;21.70;99.90;;;;;;5095517;28;20114;-81
2022/08/28 08:44:11;;;;;;;6.30;3.28;;;21.70;99.90;;;;;;5095920;28;20024;-80
2022/08/28 08:47:02;;;;;;;4.30;3.03;;;21.60;99.90;;;;;;5097283;28;20085;-81
2022/08/28 08:49:35;;;;;;;4.55;3.17;;;21.60;99.90;;;;;;5095844;28;20465;-80
2022/08/28 08:52:17;;;;;;;5.20;3.20;;;21.50;99.90;;;;;;5095102;28;20090;-80
2022/08/28 08:54:43;;;;;;;;;;;21.60;99.90;;;;;;5097189;28;20024;-81
2022/08/28 08:57:13;;;;;;;5.95;3.17;;;21.60;99.90;;;;;;5094882;28;19950;-81
2022/08/28 08:59:40;;;;;;;5.68;3.70;;;21.70;99.90;;;;;;5095585;28;20127;-81
2022/08/28 09:02:22;;;;;;;6.82;3.45;;;21.90;99.90;;;;;;5094882;28;20385;-81
2022/08/28 09:04:51;;;;;;;5.93;3.58;;;22.20;99.90;;;;;;5096379;28;20469;-82
2022/08/28 09:07:19;;;;;;;6.10;3.35;;;22.30;99.90;;;;;;5093124;28;20020;-80
2022/08/28 09:09:53;;;;;;;6.05;3.70;;;22.40;99.90;;;;;;5094427;28;20098;-81
2022/08/28 09:12:22;;;;;;;11.13;4.15;;;22.50;99.90;;;;;;5095083;28;20404;-80
2022/08/28 09:15:12;;;;;;;6.13;4.10;;;22.50;99.90;;;;;;5095910;28;20024;-79
2022/08/28 09:17:51;;;;;;;5.35;3.75;;;22.40;99.90;;;;;;5095359;28;20372;-80
2022/08/28 09:20:27;;;;;;;4.35;3.40;;;22.50;99.90;;;;;;5094339;28;20035;-80
2022/08/28 09:22:53;;;;;;;6.50;3.40;;;22.60;99.90;;;;;;5096019;28;20028;-79
2022/08/28 09:25:43;;;;;;;5.20;3.85;;;22.70;99.90;;;;;;5094160;28;20020;-80
2022/08/28 09:28:19;;;;;;;6.45;3.53;;;22.90;99.90;;;;;;5094586;28;20054;-81
2022/08/28 09:31:01;;;;;;;7.35;3.80;;;23.00;99.90;;;;;;5095901;28;20103;-79
2022/08/28 09:33:36;;;;;;;5.97;3.40;;;23.10;99.90;;;;;;5096001;28;20031;-80
2022/08/28 09:36:26;;;;;;;6.75;3.53;;;23.20;99.90;;;;;;5094295;28;20495;-80
2022/08/28 09:39:23;;;;;;;6.53;3.63;;;23.30;99.90;;;;;;5094322;28;20028;-79
2022/08/28 09:45:17;;;;;;;5.78;3.70;;;23.60;99.90;;;;;;5089128;28;20119;-82
2022/08/28 09:47:42;;;;;;;8.13;3.75;;;23.70;99.90;;;;;;5111701;28;20028;-91
2022/08/28 09:50:25;;;;;;;5.97;3.28;;;23.80;99.90;;;;;;5095718;28;20078;-91
2022/08/28 09:52:54;;;;;;;5.65;3.67;;;23.80;99.90;;;;;;5094638;28;20074;-86
2022/08/28 09:56:13;;;;;;;6.45;3.42;;;23.80;99.90;;;;;;5095799;28;20513;-87
2022/08/28 09:58:52;;;;;;;6.05;3.72;;;23.90;99.90;;;;;;5051645;28;20041;-87
2022/08/28 10:01:48;;;;;;;5.38;3.53;;;23.80;99.90;;;;;;5074826;28;20458;-86
2022/08/28 10:04:14;;;;;;;6.53;3.80;;;23.80;99.90;;;;;;5075027;28;20043;-85
2022/08/28 10:06:47;;;;;;;9.20;3.83;;;23.70;99.90;;;;;;5074067;28;20028;-85
2022/08/28 10:09:51;;;;;;;6.97;4.00;;;23.60;99.90;;;;;;5092452;28;20396;-82
2022/08/28 10:12:58;;;;;;;5.20;3.63;;;23.60;99.90;;;;;;5094760;28;20032;-84
2022/08/28 10:15:33;;;;;;;5.35;3.63;;;23.70;99.90;;;;;;5085638;28;20070;-82
2022/08/28 10:18:13;;;;;;;5.07;3.35;;;23.80;99.90;;;;;;5095367;28;20032;-89
2022/08/28 10:21:00;;;;;;;5.93;3.17;;;23.80;99.90;;;;;;5095075;28;20025;-92
2022/08/28 10:23:35;;;;;;;5.32;3.42;;;24.00;99.90;;;;;;5095194;28;21181;-89
2022/08/28 10:26:19;;;;;;;6.95;3.70;;;24.00;99.90;;;;;;5095286;28;20077;-85
2022/08/28 10:28:54;;;;;;;6.68;3.60;;;24.10;99.90;;;;;;5094110;28;20492;-86
2022/08/28 10:31:28;;;;;;;5.78;3.50;;;23.90;99.90;;;;;;5092697;28;20047;-87
2022/08/28 10:34:34;;;;;;;7.85;4.00;;;23.80;99.90;;;;;;5075283;28;20081;-85
2022/08/28 10:37:22;;;;;;;6.72;3.70;;;23.80;99.90;;;;;;5073694;28;20032;-85
2022/08/28 10:39:58;;;;;;;5.40;3.40;;;23.90;99.90;;;;;;5103820;28;20488;-89
2022/08/28 10:42:33;;;;;;;7.07;3.80;;;24.00;99.90;;;;;;5094230;28;20028;-87
2022/08/28 10:45:16;;;;;;;7.05;3.60;;;24.10;99.90;;;;;;5093879;28;20106;-87
2022/08/28 10:47:49;;;;;;;5.75;3.30;;;23.90;99.40;;;;;;5073681;28;20029;-88
2022/08/28 10:50:25;;;;;;;7.25;4.18;;;23.90;99.60;;;;;;5090255;28;20087;-90
2022/08/28 10:52:59;;;;;;;5.55;3.35;;;23.90;99.50;;;;;;5073303;28;20060;-91
2022/08/28 10:55:33;;;;;;;5.90;3.83;;;23.90;99.50;;;;;;5092295;28;20029;-90
2022/08/28 10:58:04;;;;;;;5.15;3.58;;;24.20;99.40;;;;;;5094741;28;20028;-88
2022/08/28 11:00:31;;;;;;;;;;;24.30;99.10;;;;;;5095021;28;20063;-88
2022/08/28 11:03:07;;;;;;;5.10;3.15;;;24.30;98.40;;;;;;5093337;28;19915;-88
2022/08/28 11:05:41;;;;;;;7.13;3.50;;;24.30;98.50;;;;;;5074529;28;20123;-88
2022/08/28 11:08:22;;;;;;;6.00;3.85;;;24.30;98.90;;;;;;5080655;28;20054;-91
2022/08/28 11:10:53;;;;;;;4.32;3.10;;;24.10;99.10;;;;;;5079653;28;20527;-89
2022/08/28 11:13:37;;;;;;;4.22;3.35;;;24.20;99.30;;;;;;5090182;28;20089;-86
2022/08/28 11:16:11;;;;;;;9.30;3.80;;;24.10;99.10;;;;;;5090743;28;20056;-90
2022/08/28 11:19:01;;;;;;;8.15;3.70;;;24.10;99.70;;;;;;5097851;28;20032;-91
2022/08/28 11:21:32;;;;;;;6.20;3.50;;;24.10;99.10;;;;;;5094784;28;20027;-88
2022/08/28 11:24:06;;;;;;;6.43;3.55;;;24.30;99.30;;;;;;5096282;28;20024;-88
2022/08/28 11:26:55;;;;;;;7.15;3.75;;;24.30;98.90;;;;;;5095116;28;20111;-88
2022/08/28 11:30:00;;;;;;;4.65;3.55;;;24.30;98.80;;;;;;5094884;28;20034;-90
2022/08/28 11:32:36;;;;;;;8.25;3.92;;;24.20;98.80;;;;;;5108665;28;20042;-89
2022/08/28 11:35:11;;;;;;;8.52;3.70;;;24.30;98.80;;;;;;5091067;28;20020;-89
2022/08/28 11:37:46;;;;;;;5.25;3.53;;;24.20;98.80;;;;;;5092881;28;20120;-89
2022/08/28 11:40:49;;;;;;;76.93;44.10;;;24.10;99.10;;;;;;5091824;28;20157;-86
2022/08/28 11:43:15;;;;;;;21.25;15.35;;;24.00;99.20;;;;;;5089041;28;20073;-84
2022/08/28 11:45:46;;;;;;;33.50;22.02;;;23.90;99.10;;;;;;5092422;28;20028;-82
2022/08/28 11:48:21;;;;;;;;;;;23.90;99.40;;;;;;5092709;28;20031;-89
2022/08/28 11:51:01;;;;;;;10.73;5.47;;;24.00;99.20;;;;;;5093046;28;19911;-89
2022/08/28 11:53:48;;;;;;;6.32;4.22;;;24.00;99.10;;;;;;5091961;28;20044;-87
2022/08/28 11:56:51;;;;;;;5.90;3.90;;;24.10;99.20;;;;;;5092691;28;20080;-87
2022/08/28 11:59:51;;;;;;;5.75;3.67;;;24.10;98.90;;;;;;5092417;28;20109;-86
2022/08/28 12:02:35;;;;;;;6.45;3.83;;;24.20;98.50;;;;;;5092926;28;20020;-87
2022/08/28 12:05:06;;;;;;;6.38;3.30;;;24.40;98.50;;;;;;5093449;28;20028;-88
2022/08/28 12:07:36;;;;;;;6.30;4.00;;;24.50;98.20;;;;;;5072791;28;20580;-89
2022/08/28 12:10:28;;;;;;;6.57;3.80;;;24.70;97.90;;;;;;5072607;28;20033;-89
2022/08/28 12:12:55;;;;;;;5.35;3.67;;;24.70;98.00;;;;;;5104109;28;20024;-87
2022/08/28 12:15:27;;;;;;;6.07;3.50;;;24.70;97.50;;;;;;5092706;28;20016;-88
2022/08/28 12:18:04;;;;;;;4.20;3.60;;;24.70;97.90;;;;;;5092161;28;20480;-87
2022/08/28 12:20:48;;;;;;;4.40;3.40;;;24.70;97.70;;;;;;5091965;28;20043;-88
2022/08/28 12:23:40;;;;;;;5.57;3.55;;;24.80;97.70;;;;;;5094389;28;20034;-89
2022/08/28 12:26:27;;;;;;;4.53;3.42;;;25.10;97.30;;;;;;5091208;28;20067;-91
2022/08/28 12:29:20;;;;;;;5.03;3.25;;;25.40;96.50;;;;;;5090748;28;20028;-86
2022/08/28 12:32:12;;;;;;;4.97;3.65;;;25.30;96.20;;;;;;5092000;28;20020;-86
2022/08/28 12:34:56;;;;;;;5.13;3.22;;;25.50;96.40;;;;;;5087818;28;20454;-88
2022/08/28 12:37:43;;;;;;;5.18;3.38;;;25.70;95.50;;;;;;5091391;28;20047;-87
2022/08/28 12:40:46;;;;;;;5.78;3.38;;;25.90;95.70;;;;;;5107964;28;20023;-89
2022/08/28 12:43:17;;;;;;;4.78;3.30;;;26.10;94.70;;;;;;5089045;28;20028;-89
2022/08/28 12:46:03;;;;;;;;;;;26.20;94.40;;;;;;5097312;28;20023;-88
2022/08/28 12:48:31;;;;;;;4.30;3.00;;;26.40;93.80;;;;;;5095792;28;19930;-89
2022/08/28 12:51:05;;;;;;;5.85;3.38;;;26.70;94.20;;;;;;5080494;28;20031;-89
2022/08/28 12:53:39;;;;;;;5.80;3.05;;;27.10;93.60;;;;;;5087185;28;20058;-89
2022/08/28 12:56:08;;;;;;;5.03;3.28;;;27.40;92.50;;;;;;5096295;28;20032;-84
2022/08/28 12:58:36;;;;;;;5.75;3.20;;;27.60;92.00;;;;;;5095661;28;20058;-84
2022/08/28 13:01:25;;;;;;;5.15;3.42;;;27.70;91.60;;;;;;5079281;28;20496;-84
2022/08/28 13:04:06;;;;;;;3.97;2.85;;;27.80;90.80;;;;;;5091921;28;20097;-85
2022/08/28 13:06:36;;;;;;;3.05;2.42;;;27.70;90.40;;;;;;5094893;28;20439;-86
2022/08/28 13:09:06;;;;;;;6.70;3.08;;;27.70;90.10;;;;;;5095447;28;20119;-87
2022/08/28 13:11:37;;;;;;;3.15;2.65;;;27.50;89.20;;;;;;5095775;28;20510;-86
2022/08/28 13:14:05;;;;;;;5.32;3.33;;;27.20;89.20;;;;;;5094455;28;20024;-86
2022/08/28 13:16:36;;;;;;;6.15;3.05;;;27.00;90.00;;;;;;5095883;28;20062;-86
2022/08/28 13:19:05;;;;;;;5.63;2.95;;;27.10;90.00;;;;;;5109482;28;20035;-86
2022/08/28 13:21:57;;;;;;;4.47;2.95;;;27.90;88.50;;;;;;5093583;28;20024;-86